Time;durP1;ratioP1;P1;durP2;ratioP2;P2;SDS_P1;SDS_P2;PMS_P1;PMS_P2;Temp;Humidity;BMP_temperature;BMP_pressure;BME280_temperature;BME280_humidity;BME280_pressure;Samples;Min_cycle;Max_cycle;Signal;HPM_P1;HPM_P2
2023/07/09 00:01:18;;;;;;;4.13;3.78;;;15.10;99.90;;;;;;5061773;28;20114;-63
2023/07/09 00:03:51;;;;;;;2.67;2.47;;;15.10;99.90;;;;;;5074621;28;20049;-63
2023/07/09 00:06:19;;;;;;;3.20;2.95;;;15.10;99.90;;;;;;5082371;28;20085;-63
2023/07/09 00:08:49;;;;;;;3.58;3.28;;;15.10;99.90;;;;;;5077058;28;20060;-64
2023/07/09 00:11:17;;;;;;;3.33;3.03;;;15.10;99.90;;;;;;5076212;28;20056;-63
2023/07/09 00:13:44;;;;;;;4.40;3.20;;;15.00;99.90;;;;;;5078288;28;20119;-63
2023/07/09 00:16:19;;;;;;;4.28;3.88;;;15.00;99.90;;;;;;5077355;28;20051;-64
2023/07/09 00:18:48;;;;;;;4.75;3.20;;;14.90;99.90;;;;;;5073849;28;20037;-64
2023/07/09 00:21:20;;;;;;;3.35;3.05;;;14.90;99.90;;;;;;5079193;28;20035;-63
2023/07/09 00:23:50;;;;;;;3.45;2.50;;;14.90;99.90;;;;;;5072573;28;20607;-64
2023/07/09 00:26:22;;;;;;;4.95;3.72;;;14.90;99.90;;;;;;5077880;28;20040;-63
2023/07/09 00:28:50;;;;;;;4.10;3.70;;;14.90;99.90;;;;;;5057637;28;20135;-64
2023/07/09 00:31:17;;;;;;;4.65;3.72;;;14.90;99.90;;;;;;5072439;28;20051;-63
2023/07/09 00:33:45;;;;;;;4.30;3.00;;;14.80;99.90;;;;;;5077300;28;20498;-63
2023/07/09 00:36:32;;;;;;;5.65;3.40;;;14.80;99.90;;;;;;5073214;28;20127;-64
2023/07/09 00:39:04;;;;;;;5.47;3.20;;;14.80;99.90;;;;;;5074965;28;20052;-65
2023/07/09 00:41:37;;;;;;;3.28;2.97;;;14.70;99.90;;;;;;5075477;28;20052;-63
2023/07/09 00:44:22;;;;;;;4.07;3.72;;;14.70;99.90;;;;;;5059124;28;20055;-64
2023/07/09 00:46:49;;;;;;;4.13;3.72;;;14.70;99.90;;;;;;5075548;28;20044;-63
2023/07/09 00:49:29;;;;;;;4.60;3.13;;;14.60;99.90;;;;;;5073937;28;20343;-63
2023/07/09 00:52:01;;;;;;;3.75;2.95;;;14.60;99.90;;;;;;5078038;28;20052;-65
2023/07/09 00:54:37;;;;;;;3.50;2.42;;;14.60;99.90;;;;;;5058465;28;20048;-63
2023/07/09 00:57:18;;;;;;;5.47;2.92;;;14.60;99.90;;;;;;5074028;28;20046;-63
2023/07/09 00:59:52;;;;;;;4.40;3.10;;;14.60;99.90;;;;;;5063905;28;20505;-64
2023/07/09 01:02:23;;;;;;;3.10;2.80;;;14.60;99.90;;;;;;5052971;28;20356;-63
2023/07/09 01:05:00;;;;;;;3.75;2.83;;;14.60;99.90;;;;;;5072549;28;20516;-63
2023/07/09 01:07:30;;;;;;;3.17;2.92;;;14.50;99.90;;;;;;5072609;28;20062;-63
2023/07/09 01:09:57;;;;;;;4.60;3.78;;;14.60;99.90;;;;;;5074084;28;20472;-63
2023/07/09 01:12:24;;;;;;;3.72;3.42;;;14.70;99.90;;;;;;5077882;28;20044;-63
2023/07/09 01:14:58;;;;;;;3.60;3.08;;;14.70;99.90;;;;;;5077725;28;20048;-64
2023/07/09 01:17:29;;;;;;;3.00;2.70;;;14.70;99.90;;;;;;5075651;28;20197;-63
2023/07/09 01:19:57;;;;;;;3.08;2.85;;;14.70;99.90;;;;;;5054279;28;20056;-64
2023/07/09 01:22:25;;;;;;;2.40;2.20;;;14.70;99.90;;;;;;5077888;28;20799;-65
2023/07/09 01:25:03;;;;;;;4.13;3.80;;;14.70;99.90;;;;;;5077152;28;20036;-63
2023/07/09 01:27:41;;;;;;;3.30;3.00;;;14.70;99.90;;;;;;5056490;28;20048;-63
2023/07/09 01:30:11;;;;;;;4.07;3.47;;;14.70;99.90;;;;;;5071597;28;20036;-63
2023/07/09 01:32:38;;;;;;;5.10;2.92;;;14.70;99.90;;;;;;5070958;28;20032;-64
2023/07/09 01:35:06;;;;;;;3.70;3.40;;;14.70;99.90;;;;;;5075361;28;20105;-64
2023/07/09 01:37:36;;;;;;;3.83;2.80;;;14.70;99.90;;;;;;5072624;28;20108;-65
2023/07/09 01:40:05;;;;;;;3.30;2.83;;;14.70;99.90;;;;;;5075682;28;20105;-64
2023/07/09 01:42:39;;;;;;;3.63;2.50;;;14.70;99.90;;;;;;5069469;28;20033;-63
2023/07/09 01:45:07;;;;;;;2.88;2.58;;;14.70;99.90;;;;;;5079247;28;20040;-63
2023/07/09 01:47:34;;;;;;;4.47;3.05;;;14.70;99.90;;;;;;5075666;28;20067;-63
2023/07/09 01:50:01;;;;;;;5.05;2.53;;;14.70;99.90;;;;;;5077345;28;20051;-64
2023/07/09 01:52:31;;;;;;;3.67;2.90;;;14.70;99.90;;;;;;5074471;28;20044;-63
2023/07/09 01:54:58;;;;;;;3.63;2.53;;;14.70;99.90;;;;;;5076146;28;20425;-63
2023/07/09 01:57:32;;;;;;;4.78;2.85;;;14.70;99.90;;;;;;5074608;28;20963;-63
2023/07/09 02:00:08;;;;;;;3.58;2.60;;;14.70;99.90;;;;;;5056598;28;20493;-63
2023/07/09 02:02:44;;;;;;;4.30;3.78;;;14.70;99.90;;;;;;5056796;28;20143;-64
2023/07/09 02:05:14;;;;;;;3.40;3.10;;;14.70;99.90;;;;;;5055705;28;20114;-65
2023/07/09 02:07:41;;;;;;;7.65;4.07;;;14.60;99.90;;;;;;5076833;28;20048;-63
2023/07/09 02:10:09;;;;;;;5.53;3.60;;;14.60;99.90;;;;;;5070248;28;20082;-63
2023/07/09 02:12:36;;;;;;;3.42;3.13;;;14.70;99.90;;;;;;5075519;28;20052;-63
2023/07/09 02:15:04;;;;;;;5.03;3.28;;;14.60;99.90;;;;;;5058125;28;20040;-63
2023/07/09 02:17:31;;;;;;;3.35;3.05;;;14.60;99.90;;;;;;5077824;28;20135;-63
2023/07/09 02:19:58;;;;;;;3.47;3.17;;;14.70;99.90;;;;;;5074523;28;20052;-63
2023/07/09 02:22:25;;;;;;;4.15;3.58;;;14.60;99.90;;;;;;5064011;28;20052;-64
2023/07/09 02:24:54;;;;;;;2.83;2.63;;;14.60;99.90;;;;;;5078644;28;20712;-63
2023/07/09 02:27:21;;;;;;;4.10;3.70;;;14.60;99.90;;;;;;5076082;28;20206;-63
2023/07/09 02:29:49;;;;;;;3.47;3.17;;;14.60;99.90;;;;;;5079139;28;20055;-64
2023/07/09 02:32:22;;;;;;;4.45;3.38;;;14.70;99.90;;;;;;5078210;28;20055;-63
2023/07/09 02:34:52;;;;;;;4.57;3.22;;;14.80;99.90;;;;;;5078847;28;20040;-63
2023/07/09 02:37:22;;;;;;;3.08;2.88;;;14.80;99.90;;;;;;5079038;28;20131;-63
2023/07/09 02:39:50;;;;;;;3.20;3.00;;;14.80;99.90;;;;;;5069358;28;20511;-64
2023/07/09 02:42:19;;;;;;;4.22;3.08;;;14.80;99.90;;;;;;5080925;28;20816;-64
2023/07/09 02:44:47;;;;;;;4.07;3.55;;;14.90;99.90;;;;;;5058763;28;20047;-65
2023/07/09 02:47:14;;;;;;;4.05;3.28;;;14.90;99.90;;;;;;5075502;28;20481;-63
2023/07/09 02:49:42;;;;;;;3.88;2.83;;;14.90;99.90;;;;;;5066840;28;20092;-65
2023/07/09 02:52:09;;;;;;;3.25;2.83;;;15.00;99.90;;;;;;5079729;28;20039;-63
2023/07/09 02:54:36;;;;;;;4.70;3.47;;;15.00;99.90;;;;;;5062472;28;20049;-64
2023/07/09 02:57:03;;;;;;;4.18;3.15;;;15.00;99.90;;;;;;5056908;28;20060;-63
2023/07/09 02:59:30;;;;;;;3.60;3.30;;;15.10;99.90;;;;;;5071583;28;20101;-63
2023/07/09 03:01:57;;;;;;;3.40;3.10;;;15.10;99.90;;;;;;5067283;28;20044;-64
2023/07/09 03:04:24;;;;;;;3.92;2.45;;;15.10;99.90;;;;;;5072773;28;20052;-65
2023/07/09 03:06:52;;;;;;;5.85;3.58;;;15.20;99.90;;;;;;5075367;28;20051;-64
2023/07/09 03:09:20;;;;;;;3.75;3.35;;;15.20;99.90;;;;;;5075440;28;20059;-63
2023/07/09 03:11:48;;;;;;;3.03;2.80;;;15.20;99.90;;;;;;5059313;28;20374;-64
2023/07/09 03:14:16;;;;;;;3.05;2.83;;;15.30;99.90;;;;;;5076967;28;20040;-63
2023/07/09 03:16:43;;;;;;;3.42;3.13;;;15.30;99.90;;;;;;5063750;28;20052;-63
2023/07/09 03:19:10;;;;;;;3.53;3.22;;;15.30;99.90;;;;;;5075695;28;20046;-64
2023/07/09 03:21:37;;;;;;;3.65;3.35;;;15.40;99.90;;;;;;5073233;28;20072;-64
2023/07/09 03:24:04;;;;;;;5.10;4.57;;;15.50;99.90;;;;;;5077443;28;20076;-64
2023/07/09 03:26:31;;;;;;;3.78;3.13;;;15.50;99.90;;;;;;5059731;28;20456;-63
2023/07/09 03:28:58;;;;;;;3.25;2.95;;;15.50;99.90;;;;;;5076590;28;20165;-63
2023/07/09 03:31:25;;;;;;;3.45;3.15;;;15.60;99.90;;;;;;5073812;28;20245;-63
2023/07/09 03:33:53;;;;;;;2.70;2.50;;;15.60;99.90;;;;;;5055865;28;20075;-64
2023/07/09 03:36:20;;;;;;;2.88;2.45;;;15.70;99.90;;;;;;5071425;28;20052;-63
2023/07/09 03:38:48;;;;;;;3.50;3.20;;;15.70;99.90;;;;;;5080374;28;20044;-63
2023/07/09 03:41:15;;;;;;;3.30;3.05;;;15.70;99.90;;;;;;5076189;28;20057;-64
2023/07/09 03:43:43;;;;;;;3.47;3.17;;;15.70;99.90;;;;;;5077582;28;20537;-63
2023/07/09 03:46:10;;;;;;;2.97;2.53;;;15.80;99.90;;;;;;5078241;28;20051;-64
2023/07/09 03:48:37;;;;;;;3.53;3.20;;;15.80;99.90;;;;;;5077343;28;20167;-64
2023/07/09 03:51:04;;;;;;;3.75;3.40;;;15.80;99.90;;;;;;5080754;28;20052;-64
2023/07/09 03:53:31;;;;;;;3.53;2.67;;;15.80;99.90;;;;;;5074962;28;20044;-62
2023/07/09 03:55:59;;;;;;;4.43;2.63;;;15.90;99.90;;;;;;5079043;28;20098;-65
2023/07/09 03:58:27;;;;;;;3.25;2.63;;;15.90;99.90;;;;;;5074406;28;20421;-63
2023/07/09 04:00:55;;;;;;;2.70;2.50;;;16.00;99.90;;;;;;5072915;28;20040;-63
2023/07/09 04:03:22;;;;;;;2.80;2.60;;;16.00;99.90;;;;;;5079792;28;20124;-64
2023/07/09 04:05:49;;;;;;;3.20;2.90;;;16.10;99.90;;;;;;5073647;28;20458;-63
2023/07/09 04:08:16;;;;;;;3.10;2.72;;;16.10;99.90;;;;;;5076735;28;20083;-63
2023/07/09 04:10:43;;;;;;;2.78;2.53;;;16.20;99.90;;;;;;5074118;28;20611;-63
2023/07/09 04:13:10;;;;;;;4.45;2.70;;;16.30;99.90;;;;;;5077233;28;20175;-62
2023/07/09 04:15:37;;;;;;;7.03;3.28;;;16.30;99.90;;;;;;5076479;28;20066;-65
2023/07/09 04:18:04;;;;;;;2.85;2.50;;;16.40;99.90;;;;;;5077499;28;20071;-64
2023/07/09 04:20:31;;;;;;;2.67;2.40;;;16.50;99.90;;;;;;5072443;28;20110;-63
2023/07/09 04:22:58;;;;;;;2.35;1.88;;;16.50;99.90;;;;;;5077388;28;20063;-63
2023/07/09 04:25:25;;;;;;;4.85;2.92;;;16.60;99.90;;;;;;5074147;28;20089;-65
2023/07/09 04:27:52;;;;;;;2.42;1.98;;;16.80;99.90;;;;;;5079765;28;20586;-63
2023/07/09 04:30:19;;;;;;;2.72;1.90;;;16.90;99.90;;;;;;5074599;28;20040;-64
2023/07/09 04:32:46;;;;;;;3.92;1.95;;;16.90;99.90;;;;;;5072737;28;20132;-65
2023/07/09 04:35:14;;;;;;;1.90;1.70;;;17.00;99.90;;;;;;5074022;28;20086;-63
2023/07/09 04:37:42;;;;;;;3.05;2.55;;;17.10;99.90;;;;;;5076437;28;20040;-63
2023/07/09 04:40:11;;;;;;;3.47;2.40;;;17.20;99.90;;;;;;5077596;28;20452;-65
2023/07/09 04:42:39;;;;;;;2.92;2.05;;;17.30;99.90;;;;;;5075083;28;20068;-64
2023/07/09 04:45:08;;;;;;;3.17;1.60;;;17.40;99.90;;;;;;5074731;28;20509;-63
2023/07/09 04:47:36;;;;;;;2.55;2.35;;;17.50;99.90;;;;;;5077208;28;20452;-64
2023/07/09 04:50:05;;;;;;;2.80;2.60;;;17.50;99.90;;;;;;5076672;28;20500;-63
2023/07/09 04:52:32;;;;;;;2.28;1.42;;;17.50;99.90;;;;;;5076947;28;20076;-64
2023/07/09 04:54:59;;;;;;;2.20;1.90;;;17.50;99.90;;;;;;5076109;28;20072;-63
2023/07/09 04:57:27;;;;;;;1.85;1.48;;;17.60;99.90;;;;;;5075011;28;20068;-63
2023/07/09 04:59:54;;;;;;;4.53;2.40;;;17.70;99.90;;;;;;5077270;28;20032;-64
2023/07/09 05:02:22;;;;;;;2.42;1.85;;;17.70;99.90;;;;;;5077766;28;20098;-64
2023/07/09 05:04:49;;;;;;;2.50;2.30;;;17.80;99.90;;;;;;5074885;28;20516;-63
2023/07/09 05:07:15;;;;;;;2.05;1.77;;;17.70;99.90;;;;;;5076137;28;20044;-63
2023/07/09 05:09:42;;;;;;;2.50;2.30;;;17.70;99.90;;;;;;5069502;28;20729;-63
2023/07/09 05:12:09;;;;;;;2.70;2.50;;;17.80;99.90;;;;;;5075494;28;20734;-63
2023/07/09 05:14:36;;;;;;;2.60;1.98;;;17.90;99.90;;;;;;5075224;28;20064;-63
2023/07/09 05:17:04;;;;;;;1.90;1.80;;;17.90;99.90;;;;;;5069908;28;20044;-63
2023/07/09 05:19:31;;;;;;;3.65;2.28;;;18.00;99.90;;;;;;5075545;28;20529;-64
2023/07/09 05:21:58;;;;;;;3.35;2.28;;;18.10;99.90;;;;;;5075131;28;20420;-63
2023/07/09 05:24:25;;;;;;;3.25;2.95;;;18.10;99.90;;;;;;5076227;28;20036;-63
2023/07/09 05:26:55;;;;;;;2.42;2.17;;;18.10;99.90;;;;;;5073922;28;20119;-63
2023/07/09 05:29:22;;;;;;;4.50;2.58;;;18.20;99.90;;;;;;5072131;28;20044;-63
2023/07/09 05:31:49;;;;;;;2.88;2.67;;;18.20;99.90;;;;;;5069790;28;20048;-63
2023/07/09 05:34:17;;;;;;;2.53;2.20;;;18.20;99.90;;;;;;5073534;28;20042;-64
2023/07/09 05:36:44;;;;;;;8.18;2.88;;;18.20;99.90;;;;;;5076239;28;20048;-63
2023/07/09 05:39:11;;;;;;;3.00;2.42;;;18.20;99.90;;;;;;5075996;28;20055;-64
2023/07/09 05:41:38;;;;;;;2.55;2.30;;;18.20;99.90;;;;;;5075172;28;20413;-63
2023/07/09 05:44:06;;;;;;;3.38;2.28;;;18.30;99.90;;;;;;5071594;28;20044;-64
2023/07/09 05:46:36;;;;;;;2.42;2.22;;;18.30;99.90;;;;;;5074575;28;20041;-64
2023/07/09 05:49:05;;;;;;;2.45;2.25;;;18.30;99.90;;;;;;5058030;28;20398;-64
2023/07/09 05:51:32;;;;;;;2.40;2.20;;;18.30;99.90;;;;;;5079955;28;20044;-64
2023/07/09 05:53:59;;;;;;;6.55;2.50;;;18.30;99.90;;;;;;5073728;28;20078;-63
2023/07/09 05:56:26;;;;;;;3.15;2.63;;;18.30;99.90;;;;;;5075211;28;20044;-64
2023/07/09 05:58:53;;;;;;;2.88;2.08;;;18.30;99.90;;;;;;5075213;28;20051;-65
2023/07/09 06:01:20;;;;;;;5.75;2.33;;;18.30;99.90;;;;;;5079848;28;20071;-63
2023/07/09 06:03:48;;;;;;;1.70;1.60;;;18.30;99.90;;;;;;5076839;28;20048;-63
2023/07/09 06:06:16;;;;;;;2.75;1.88;;;18.30;99.90;;;;;;5079553;28;20032;-64
2023/07/09 06:08:43;;;;;;;4.55;2.08;;;18.30;99.90;;;;;;5061061;28;20068;-63
2023/07/09 06:11:10;;;;;;;2.78;2.58;;;18.30;99.90;;;;;;5079924;28;20085;-63
2023/07/09 06:13:37;;;;;;;4.10;2.45;;;18.40;99.90;;;;;;5078036;28;20044;-65
2023/07/09 06:16:05;;;;;;;2.15;2.00;;;18.40;99.90;;;;;;5082072;28;20044;-64
2023/07/09 06:18:32;;;;;;;2.20;2.00;;;18.40;99.90;;;;;;5080513;28;20395;-63
2023/07/09 06:21:01;;;;;;;2.83;1.95;;;18.40;99.90;;;;;;5077773;28;20604;-65
2023/07/09 06:23:29;;;;;;;2.60;2.40;;;18.50;99.90;;;;;;5077966;28;20539;-63
2023/07/09 06:25:56;;;;;;;1.85;1.30;;;18.40;99.90;;;;;;5078467;28;20040;-63
2023/07/09 06:28:28;;;;;;;4.28;2.05;;;18.40;99.90;;;;;;5081641;28;20051;-64
2023/07/09 06:30:56;;;;;;;8.25;3.40;;;18.40;99.90;;;;;;5073565;28;20079;-63
2023/07/09 06:33:25;;;;;;;3.65;2.28;;;18.40;99.90;;;;;;5076747;28;20048;-64
2023/07/09 06:35:55;;;;;;;2.47;2.20;;;18.50;99.90;;;;;;5056377;28;20943;-64
2023/07/09 06:38:23;;;;;;;2.63;2.42;;;18.50;99.90;;;;;;5080115;28;20056;-65
2023/07/09 06:40:50;;;;;;;2.28;2.08;;;18.40;99.90;;;;;;5080152;28;20101;-63
2023/07/09 06:43:17;;;;;;;4.72;2.35;;;18.40;99.90;;;;;;5077436;28;20105;-64
2023/07/09 06:45:55;;;;;;;2.88;2.67;;;18.30;99.90;;;;;;5057772;28;20090;-63
2023/07/09 06:48:23;;;;;;;2.28;2.08;;;18.40;99.90;;;;;;5080134;28;20087;-64
2023/07/09 06:50:51;;;;;;;2.75;2.10;;;18.40;99.90;;;;;;5077108;28;20052;-64
2023/07/09 06:53:18;;;;;;;2.47;2.03;;;18.50;99.90;;;;;;5076062;28;20103;-64
2023/07/09 06:55:45;;;;;;;4.93;2.33;;;18.60;99.90;;;;;;5080111;28;20085;-64
2023/07/09 06:58:13;;;;;;;2.00;1.80;;;18.60;99.90;;;;;;5081757;28;20052;-63
2023/07/09 07:00:40;;;;;;;2.25;2.13;;;18.70;99.90;;;;;;5075941;28;20480;-63
2023/07/09 07:03:07;;;;;;;1.90;1.70;;;18.70;99.90;;;;;;5072512;28;20082;-64
2023/07/09 07:05:34;;;;;;;4.95;2.30;;;18.70;99.90;;;;;;5076387;28;20682;-63
2023/07/09 07:08:02;;;;;;;4.20;2.10;;;18.80;99.90;;;;;;5077714;28;20056;-64
2023/07/09 07:10:30;;;;;;;2.33;2.13;;;18.90;99.90;;;;;;5077738;28;20048;-63
2023/07/09 07:12:57;;;;;;;2.85;2.40;;;18.90;99.90;;;;;;5073655;28;20134;-65
2023/07/09 07:15:24;;;;;;;2.10;1.70;;;18.90;99.90;;;;;;5075251;28;20129;-64
2023/07/09 07:17:51;;;;;;;2.28;2.05;;;19.00;99.90;;;;;;5077184;28;20385;-64
2023/07/09 07:20:18;;;;;;;2.45;2.25;;;19.00;99.90;;;;;;5073858;28;20044;-66
2023/07/09 07:22:46;;;;;;;4.00;3.00;;;19.00;99.90;;;;;;5076912;28;20040;-64
2023/07/09 07:25:13;;;;;;;4.15;2.50;;;19.00;99.90;;;;;;5072639;28;20052;-65
2023/07/09 07:27:40;;;;;;;2.28;1.90;;;19.00;99.90;;;;;;5075395;28;20040;-63
2023/07/09 07:30:11;;;;;;;1.90;1.80;;;18.90;99.90;;;;;;5074708;28;20041;-63
2023/07/09 07:32:43;;;;;;;1.58;1.48;;;19.00;99.90;;;;;;5080470;28;20691;-64
2023/07/09 07:35:10;;;;;;;2.03;1.42;;;19.10;99.90;;;;;;5071640;28;20072;-64
2023/07/09 07:37:36;;;;;;;1.70;1.60;;;19.10;99.90;;;;;;5080478;28;20736;-63
2023/07/09 07:40:04;;;;;;;2.90;2.50;;;19.20;99.90;;;;;;5074720;28;20075;-65
2023/07/09 07:42:31;;;;;;;2.92;1.55;;;19.30;99.90;;;;;;5080583;28;20348;-63
2023/07/09 07:44:59;;;;;;;1.52;1.42;;;19.30;99.90;;;;;;5073058;28;20044;-64
2023/07/09 07:47:27;;;;;;;2.30;2.03;;;19.40;99.90;;;;;;5078437;28;20036;-64
2023/07/09 07:49:54;;;;;;;2.50;1.55;;;19.30;99.90;;;;;;5074677;28;20060;-65
2023/07/09 07:52:21;;;;;;;1.60;1.50;;;19.40;99.90;;;;;;5075444;28;20044;-64
2023/07/09 07:54:48;;;;;;;2.35;1.80;;;19.40;99.90;;;;;;5074345;28;20048;-64
2023/07/09 07:57:15;;;;;;;2.08;1.90;;;19.40;99.90;;;;;;5075657;28;20127;-63
2023/07/09 07:59:42;;;;;;;3.25;2.28;;;19.40;99.90;;;;;;5079136;28;20813;-63
2023/07/09 08:02:13;;;;;;;2.00;1.90;;;19.40;99.90;;;;;;5073380;28;20040;-63
2023/07/09 08:04:41;;;;;;;2.08;1.83;;;19.40;99.90;;;;;;5074173;28;20578;-63
2023/07/09 08:07:09;;;;;;;2.28;2.05;;;19.40;99.90;;;;;;5074347;28;20123;-65
2023/07/09 08:09:37;;;;;;;3.47;2.08;;;19.50;99.90;;;;;;5077562;28;20048;-64
2023/07/09 08:12:09;;;;;;;1.77;1.60;;;19.40;99.90;;;;;;5076854;28;20122;-64
2023/07/09 08:14:42;;;;;;;1.25;1.10;;;19.50;99.90;;;;;;5073757;28;20121;-64
2023/07/09 08:17:09;;;;;;;2.60;1.30;;;19.50;99.90;;;;;;5074469;28;20056;-64
2023/07/09 08:19:51;;;;;;;2.42;1.40;;;19.60;99.90;;;;;;5066191;28;20170;-64
2023/07/09 08:22:20;;;;;;;1.25;1.08;;;19.60;99.90;;;;;;5073739;28;20494;-65
2023/07/09 08:24:48;;;;;;;2.00;1.90;;;19.60;99.90;;;;;;5077309;28;20040;-63
2023/07/09 08:27:15;;;;;;;2.40;1.50;;;19.40;99.90;;;;;;5074720;28;20079;-64
2023/07/09 08:29:42;;;;;;;2.00;1.05;;;19.30;99.90;;;;;;5075449;28;20436;-64
2023/07/09 08:32:11;;;;;;;2.42;1.50;;;19.30;99.90;;;;;;5076716;28;20072;-64
2023/07/09 08:34:39;;;;;;;1.95;1.58;;;19.30;99.90;;;;;;5080492;28;20123;-63
2023/07/09 08:37:26;;;;;;;3.40;1.75;;;19.30;99.90;;;;;;5079870;28;20044;-63
2023/07/09 08:39:53;;;;;;;1.55;1.45;;;19.30;99.90;;;;;;5075916;28;20929;-63
2023/07/09 08:42:39;;;;;;;2.63;1.63;;;19.40;99.90;;;;;;5075024;28;20576;-65
2023/07/09 08:45:35;;;;;;;2.08;1.65;;;19.60;99.90;;;;;;5071094;28;20044;-64
2023/07/09 08:48:16;;;;;;;1.83;1.13;;;19.60;99.90;;;;;;5078416;28;20121;-64
2023/07/09 08:50:49;;;;;;;2.17;1.98;;;19.80;99.90;;;;;;5076532;28;20558;-64
2023/07/09 08:53:24;;;;;;;3.17;1.33;;;19.80;99.90;;;;;;5073201;28;20060;-63
2023/07/09 08:55:52;;;;;;;1.95;1.80;;;19.80;99.90;;;;;;5076339;28;20056;-64
2023/07/09 08:58:30;;;;;;;1.92;1.83;;;19.90;99.90;;;;;;5073021;28;20538;-65
2023/07/09 09:01:06;;;;;;;1.83;1.30;;;19.90;99.90;;;;;;5076864;28;20400;-64
2023/07/09 09:03:52;;;;;;;1.92;1.55;;;19.80;99.90;;;;;;5075796;28;20547;-64
2023/07/09 09:06:30;;;;;;;1.63;1.52;;;20.00;99.90;;;;;;5075793;28;20079;-65
2023/07/09 09:09:22;;;;;;;3.33;1.88;;;20.10;99.90;;;;;;5078355;28;20171;-63
2023/07/09 09:11:59;;;;;;;3.92;1.77;;;20.10;99.90;;;;;;5076874;28;20085;-63
2023/07/09 09:14:36;;;;;;;2.00;1.58;;;20.10;99.90;;;;;;5075602;28;20060;-63
2023/07/09 09:17:13;;;;;;;2.65;1.60;;;19.90;99.90;;;;;;5076294;28;20521;-63
2023/07/09 09:19:56;;;;;;;1.75;1.40;;;20.10;99.90;;;;;;5072325;28;20056;-69
2023/07/09 09:22:32;;;;;;;1.65;1.35;;;20.10;99.90;;;;;;5076029;28;20394;-63
2023/07/09 09:25:12;;;;;;;1.92;1.40;;;20.10;99.90;;;;;;5077639;28;20072;-64
2023/07/09 09:27:39;;;;;;;;;;;20.00;99.90;;;;;;5074898;28;20069;-64
2023/07/09 09:30:16;;;;;;;3.55;1.65;;;20.00;99.90;;;;;;5075401;28;20335;-65
2023/07/09 09:32:46;;;;;;;3.75;2.33;;;20.10;99.90;;;;;;5083706;28;20453;-63
2023/07/09 09:35:14;;;;;;;;;;;20.10;99.90;;;;;;5083312;28;20127;-63
2023/07/09 09:37:49;;;;;;;2.55;1.48;;;20.10;99.90;;;;;;5079763;28;20415;-64
2023/07/09 09:40:22;;;;;;;3.05;1.55;;;20.10;99.90;;;;;;5084677;28;20051;-64
2023/07/09 09:42:54;;;;;;;2.10;1.40;;;20.20;99.90;;;;;;5076028;28;20043;-65
2023/07/09 09:45:26;;;;;;;3.35;1.85;;;20.10;99.90;;;;;;5084560;28;21511;-64
2023/07/09 09:47:58;;;;;;;2.97;1.60;;;20.00;99.90;;;;;;5084478;28;20040;-64
2023/07/09 09:50:31;;;;;;;1.80;1.70;;;19.90;99.90;;;;;;5080625;28;20043;-63
2023/07/09 09:53:00;;;;;;;2.15;1.98;;;20.00;99.90;;;;;;5081607;28;20083;-63
2023/07/09 09:55:32;;;;;;;1.75;1.65;;;20.10;99.90;;;;;;5083735;28;20051;-64
2023/07/09 09:57:59;;;;;;;1.80;1.70;;;20.00;99.90;;;;;;5083088;28;20041;-65
2023/07/09 10:00:28;;;;;;;2.10;1.90;;;20.00;99.90;;;;;;5080575;28;20040;-64
2023/07/09 10:03:01;;;;;;;1.67;1.27;;;20.00;99.90;;;;;;5082494;28;20554;-65
2023/07/09 10:05:51;;;;;;;1.33;1.23;;;20.20;99.90;;;;;;5088565;28;20124;-63
2023/07/09 10:08:32;;;;;;;4.65;1.83;;;20.40;99.90;;;;;;5079201;28;20289;-64
2023/07/09 10:11:15;;;;;;;2.50;2.20;;;20.50;99.90;;;;;;5081977;28;20043;-63
2023/07/09 10:13:45;;;;;;;2.30;2.10;;;20.60;99.90;;;;;;5085506;28;20060;-64
2023/07/09 10:16:36;;;;;;;2.00;1.80;;;20.50;99.90;;;;;;5078265;28;20046;-63
2023/07/09 10:19:05;;;;;;;2.60;2.40;;;20.40;99.90;;;;;;5080920;28;20545;-66
2023/07/09 10:21:36;;;;;;;1.75;1.65;;;20.40;99.90;;;;;;5083186;28;20045;-64
2023/07/09 10:24:27;;;;;;;2.40;2.20;;;20.60;99.90;;;;;;5082782;28;20110;-64
2023/07/09 10:27:23;;;;;;;2.55;2.30;;;20.70;99.90;;;;;;5085138;28;20040;-64
2023/07/09 10:30:03;;;;;;;2.67;2.47;;;20.80;99.90;;;;;;5080891;28;20102;-64
2023/07/09 10:33:01;;;;;;;2.53;2.33;;;20.90;99.90;;;;;;5078016;28;20036;-64
2023/07/09 10:35:45;;;;;;;3.00;2.80;;;21.00;99.90;;;;;;5082616;28;20040;-65
2023/07/09 10:38:37;;;;;;;2.72;2.30;;;21.00;99.90;;;;;;5084586;28;20044;-64
2023/07/09 10:41:10;;;;;;;2.65;2.30;;;20.70;99.90;;;;;;5081793;28;20059;-63
2023/07/09 10:44:16;;;;;;;3.67;3.38;;;20.70;99.90;;;;;;5075619;28;20091;-64
2023/07/09 10:46:48;;;;;;;3.13;2.83;;;20.80;99.90;;;;;;5071466;28;20140;-64
2023/07/09 10:49:17;;;;;;;3.10;2.88;;;20.90;99.90;;;;;;5078771;28;20037;-64
2023/07/09 10:51:54;;;;;;;3.63;3.20;;;20.70;99.90;;;;;;5078477;28;20127;-65
2023/07/09 10:54:34;;;;;;;3.85;3.35;;;20.50;99.90;;;;;;5078835;28;23255;-65
2023/07/09 10:57:28;;;;;;;2.80;2.60;;;20.70;99.90;;;;;;5073810;28;20079;-64
2023/07/09 10:59:55;;;;;;;3.70;2.80;;;20.90;99.90;;;;;;5079316;28;20067;-65
2023/07/09 11:02:26;;;;;;;3.10;2.80;;;21.10;99.90;;;;;;5080501;28;20067;-64
2023/07/09 11:04:55;;;;;;;3.92;3.63;;;21.00;99.90;;;;;;5076651;28;20048;-65
2023/07/09 11:07:30;;;;;;;3.42;3.13;;;21.30;99.90;;;;;;5077562;28;20080;-64
2023/07/09 11:10:00;;;;;;;3.00;2.80;;;21.50;99.90;;;;;;5075897;28;20036;-64
2023/07/09 11:12:40;;;;;;;3.30;3.10;;;21.40;99.90;;;;;;5077159;28;20074;-64
2023/07/09 11:15:23;;;;;;;6.28;3.80;;;21.50;99.90;;;;;;5080652;28;20050;-64
2023/07/09 11:17:50;;;;;;;3.42;3.15;;;21.70;99.90;;;;;;5078195;28;20071;-64
2023/07/09 11:20:27;;;;;;;3.45;3.15;;;21.80;99.90;;;;;;5082527;28;20421;-64
2023/07/09 11:23:01;;;;;;;3.53;3.22;;;21.80;99.90;;;;;;5077944;28;20564;-64
2023/07/09 11:25:41;;;;;;;3.95;3.65;;;21.70;99.90;;;;;;5076087;28;20047;-65
2023/07/09 11:28:09;;;;;;;5.07;4.35;;;21.70;99.90;;;;;;5077278;28;20047;-64
2023/07/09 11:30:51;;;;;;;4.32;3.92;;;21.60;99.90;;;;;;5078433;28;20044;-65
2023/07/09 11:33:20;;;;;;;5.55;5.00;;;21.60;99.90;;;;;;5079595;28;20397;-65
2023/07/09 11:36:10;;;;;;;5.10;4.70;;;21.40;99.90;;;;;;5076281;28;20679;-63
2023/07/09 11:38:43;;;;;;;6.70;4.55;;;21.40;99.90;;;;;;5076698;28;20051;-64
2023/07/09 11:41:37;;;;;;;4.32;3.92;;;21.50;99.90;;;;;;5075889;28;20079;-64
2023/07/09 11:44:14;;;;;;;7.97;4.90;;;21.60;99.90;;;;;;5076330;28;20500;-64
2023/07/09 11:46:54;;;;;;;4.50;4.13;;;21.60;99.90;;;;;;5071992;28;20036;-64
2023/07/09 11:49:25;;;;;;;5.80;3.70;;;21.60;99.90;;;;;;5076878;28;20039;-65
2023/07/09 11:51:58;;;;;;;5.28;4.20;;;21.40;99.90;;;;;;5081485;28;20464;-65
2023/07/09 11:54:25;;;;;;;3.47;3.17;;;21.50;99.90;;;;;;5077605;28;20048;-64
2023/07/09 11:57:01;;;;;;;3.58;3.25;;;21.50;99.90;;;;;;5076074;28;20075;-64
2023/07/09 11:59:28;;;;;;;3.83;3.42;;;21.70;99.90;;;;;;5076578;28;20047;-65
2023/07/09 12:02:00;;;;;;;4.00;3.63;;;21.80;99.90;;;;;;5074981;28;20079;-64
2023/07/09 12:04:37;;;;;;;3.97;3.67;;;21.90;99.90;;;;;;5076320;28;20501;-65
2023/07/09 12:07:05;;;;;;;3.92;3.60;;;21.90;99.90;;;;;;5074420;28;20451;-64
2023/07/09 12:09:39;;;;;;;4.10;3.70;;;21.90;99.90;;;;;;5078727;28;20460;-64
2023/07/09 12:12:20;;;;;;;2.80;2.60;;;21.90;99.90;;;;;;5082377;28;20040;-65
2023/07/09 12:14:48;;;;;;;4.68;2.92;;;22.00;99.90;;;;;;5080801;28;20047;-64
2023/07/09 12:17:15;;;;;;;3.08;2.78;;;22.10;99.90;;;;;;5074531;28;20075;-64
2023/07/09 12:19:42;;;;;;;4.53;3.30;;;21.90;99.90;;;;;;5079325;28;20127;-63
2023/07/09 12:22:21;;;;;;;2.40;2.20;;;22.00;99.90;;;;;;5075092;28;20880;-63
2023/07/09 12:24:50;;;;;;;3.83;2.63;;;22.20;99.90;;;;;;5074616;28;20052;-65
2023/07/09 12:27:26;;;;;;;2.92;2.72;;;22.10;99.90;;;;;;5077457;28;20074;-63
2023/07/09 12:29:56;;;;;;;3.55;2.80;;;22.20;99.90;;;;;;5075976;28;20045;-65
2023/07/09 12:32:26;;;;;;;3.47;3.17;;;22.20;99.90;;;;;;5072734;28;20348;-64
2023/07/09 12:34:56;;;;;;;3.50;2.90;;;22.30;99.90;;;;;;5077624;28;20051;-64
2023/07/09 12:37:26;;;;;;;2.90;2.70;;;22.30;99.90;;;;;;5072543;28;20043;-65
2023/07/09 12:39:53;;;;;;;3.00;2.70;;;22.30;99.90;;;;;;5075717;28;20161;-64
2023/07/09 12:42:35;;;;;;;3.17;2.88;;;22.30;99.90;;;;;;5072473;28;20128;-64
2023/07/09 12:45:02;;;;;;;2.70;2.40;;;22.30;99.90;;;;;;5077154;28;20052;-65
2023/07/09 12:47:30;;;;;;;3.55;3.13;;;22.50;99.90;;;;;;5077625;28;20114;-64
2023/07/09 12:50:31;;;;;;;3.15;2.60;;;22.60;99.90;;;;;;5072704;28;20048;-65
2023/07/09 12:53:21;;;;;;;3.65;2.80;;;22.60;99.90;;;;;;5067495;28;20056;-65
2023/07/09 12:55:50;;;;;;;2.72;2.50;;;22.70;99.90;;;;;;5076663;28;20048;-64
2023/07/09 12:58:23;;;;;;;3.20;2.47;;;22.70;99.90;;;;;;5078433;28;20097;-64
2023/07/09 13:00:55;;;;;;;3.00;2.78;;;22.80;99.90;;;;;;5071631;28;20079;-64
2023/07/09 13:03:26;;;;;;;4.25;2.55;;;22.80;99.90;;;;;;5074388;28;20049;-63
2023/07/09 13:06:05;;;;;;;4.20;2.97;;;22.80;99.90;;;;;;5070955;28;20068;-64
2023/07/09 13:08:42;;;;;;;3.47;2.47;;;23.00;99.90;;;;;;5081165;28;20505;-64